Flight Track Log - Related Links

Times and Time Zones

All times are in EDT time to prevent confusion due to time zone crossing. See the THY2469 flight status page for this flight to view local times or setup timezone preferences in your user account.

Time Position Orientation Groundspeed Altitude Reporting Facility
EDT Latitude Longitude Course Direction KTS MPH feet Rate Location/Type
Tue 01:21:00 PM 37.5312 34.4658 311° West  Level Estimated
Tue 01:22:00 PM 37.5919 34.3745 310° West  Level Estimated
Tue 01:23:00 PM 37.6525 34.2831 310° West  Level Estimated
Tue 01:24:00 PM 37.7130 34.1916 310° West  Level Estimated
Tue 01:25:00 PM 37.7734 34.0999 310° West  Level Estimated
Tue 01:26:00 PM 37.8338 34.0080 310° West  Level Estimated
Tue 01:27:00 PM 37.8941 33.9160 310° West  Level Estimated
Tue 01:28:00 PM 37.9543 33.8239 310° West  Level Estimated
Tue 01:29:00 PM 38.0145 33.7316 310° West  Level Estimated
Tue 01:30:00 PM 38.0746 33.6391 310° West  Level Estimated
Tue 01:31:00 PM 38.1346 33.5465 310° West  Level Estimated
Tue 01:32:00 PM 38.1945 33.4538 309° West  Level Estimated
Tue 01:33:00 PM 38.2544 33.3609 309° West  Level Estimated
Tue 01:34:00 PM 38.3142 33.2678 309° West  Level Estimated
Tue 01:35:00 PM 38.3739 33.1746 309° West  Level Estimated
Tue 01:36:00 PM 38.4336 33.0812 309° West  Level Estimated
Tue 01:37:00 PM 38.4931 32.9877 309° West  Level Estimated
Tue 01:38:00 PM 38.5526 32.8940 309° West  Level Estimated
Tue 01:39:00 PM 38.6120 32.8002 309° West  Level Estimated
Tue 01:40:00 PM 38.6714 32.7062 309° West  Level Estimated
Tue 01:41:00 PM 38.7307 32.6121 309° West  Level Estimated
Tue 01:42:00 PM 38.7899 32.5178 309° West  Level Estimated
Tue 01:43:00 PM 38.8490 32.4233 309° West  Level Estimated
Tue 01:44:00 PM 38.9080 32.3287 309° West  Level Estimated
Tue 01:45:00 PM 38.9670 32.2339 309° West  Level Estimated
Tue 01:46:00 PM 39.0259 32.1390 309° West  Level Estimated
Tue 01:47:00 PM 39.0847 32.0439 309° West  Level Estimated
Tue 01:48:00 PM 39.1435 31.9487 309° West  Level Estimated
Tue 01:49:00 PM 39.2021 31.8533 308° West  Level Estimated
Tue 01:50:00 PM 39.2607 31.7577 308° West  Level Estimated
Tue 01:51:00 PM 39.3192 31.6620 308° West  Level Estimated
Tue 01:52:00 PM 39.3776 31.5661 308° West  Level Estimated
Tue 01:53:00 PM 39.4360 31.4701 308° West  Level Estimated
Tue 01:54:00 PM 39.4942 31.3738 308° West  Level Estimated
Tue 01:55:00 PM 39.5524 31.2775 308° West  Level Estimated
Tue 01:56:00 PM 39.6105 31.1809 308° West  Level Estimated
Tue 01:57:00 PM 39.6686 31.0842 308° West  Level Estimated
Tue 01:58:00 PM 39.7265 30.9874 308° West  Level Estimated
Tue 01:59:00 PM 39.7844 30.8904 308° West  Level Estimated
Tue 02:00:00 PM 39.8422 30.7932 308° West  Level Estimated
Tue 02:01:00 PM 39.8999 30.6959 308° West  Level Estimated
Tue 02:02:00 PM 39.9575 30.5984 308° West  Level Estimated
Tue 02:03:00 PM 40.0150 30.5007 308° West  Level Estimated
Tue 02:04:00 PM 40.0725 30.4028 308° West  Level Estimated
Tue 02:05:00 PM 40.1299 30.3048 307° West  Level Estimated
Tue 02:06:00 PM 40.1872 30.2067 307° West  Level Estimated
Tue 02:07:00 PM 40.2444 30.1083 307° West  Level Estimated
Tue 02:08:00 PM 40.3015 30.0098 307° West  Level Estimated
Tue 02:09:00 PM 40.3586 29.9112 307° West  Level Estimated
Tue 02:10:00 PM 40.4155 29.8123 307° West  Level Estimated
Tue 02:11:00 PM 40.4724 29.7134 307° West  Level Estimated
Tue 02:12:00 PM 40.5292 29.6142 307° West  Level Estimated
Tue 02:13:00 PM 40.5859 29.5149 307° West  Level Estimated
Tue 02:14:00 PM 40.6425 29.4153 307° West  Level Estimated
Tue 02:15:00 PM 40.6991 29.3157 307° West  Level Estimated
Tue 02:16:00 PM 40.7555 29.2158 307° West  Level Estimated
Tue 02:17:00 PM 40.8119 29.1158 307° West  Level Estimated
Tue 02:18:00 PM 40.8681 29.0156 307° West  Level Estimated
Tue 02:19:00 PM 40.9243 28.9153 307° West  Level Estimated
Tue 02:20:00 PM 40.9769 28.8211 306° West  Level Estimated
Tue 02:21:00 PM 40.9769 28.8211 21° North  Level Estimated
Tue 02:22:00 PM 40.9769 28.8211 21° North  Level Estimated
Tue 02:23:00 PM 40.9769 28.8211 21° North  Level Estimated
Tue 02:24:00 PM 40.9769 28.8211 21° North  Level Estimated
Tue 02:25:00 PM 40.9769 28.8211 21° North  Level Estimated
Tue 02:26:00 PM 40.9769 28.8211 21° North  Level Estimated
Tue 02:27:00 PM 40.9769 28.8211 21° North  Level Estimated
Tue 02:28:00 PM 40.9769 28.8211 21° North  Level Estimated
Tue 02:29:00 PM 40.9769 28.8211 21° North  Level Estimated
Tue 02:30:00 PM 40.9769 28.8211 21° North  Level Estimated
Tue 02:31:00 PM 40.9769 28.8211 21° North  Level Estimated
Tue 02:32:00 PM 40.9769 28.8211 21° North  Level Estimated
Tue 02:33:00 PM 40.9769 28.8211 21° North  Level Estimated
Tue 02:34:00 PM 40.9769 28.8211 21° North  Level Estimated
Tue 02:35:00 PM 40.9769 28.8211 21° North  Level Estimated
Tue 02:36:00 PM 40.9769 28.8211 21° North  Level Estimated

Login

Don't have an account? Register now (free) for customized features, flight alerts, and more!